createdAt,value
2022-12-27T00:00:37.429Z,0.2
2022-12-27T00:05:38.119Z,0.2
2022-12-27T00:10:37.533Z,0.2
2022-12-27T00:37:12.572Z,0.2
2022-12-27T00:40:37.236Z,0.2
2022-12-27T00:45:36.967Z,0.2
2022-12-27T00:50:37.423Z,0.2
2022-12-27T00:55:37.050Z,0.2
2022-12-27T01:00:36.985Z,0.1
2022-12-27T01:05:37.010Z,0.2
2022-12-27T01:10:36.940Z,0.2
2022-12-27T01:20:37.357Z,0.1
2022-12-27T01:25:37.130Z,0.3
2022-12-27T01:30:36.926Z,0.2
2022-12-27T01:35:36.973Z,0.2
2022-12-27T01:45:55.114Z,0.2
2022-12-27T01:50:37.014Z,0.1
2022-12-27T01:55:36.960Z,0.2
2022-12-27T02:00:37.173Z,0.2
2022-12-27T02:05:37.962Z,0.2
2022-12-27T02:10:36.991Z,0.2
2022-12-27T02:15:36.930Z,0.2
2022-12-27T02:20:36.946Z,0.2
2022-12-27T02:25:36.968Z,0.2
2022-12-27T02:30:37.442Z,0.2
2022-12-27T02:35:37.083Z,0.2
2022-12-27T02:40:37.227Z,0.2
2022-12-27T02:45:37.272Z,0.2
2022-12-27T02:50:37.018Z,0.2
2022-12-27T02:55:37.047Z,0.2
2022-12-27T03:00:36.962Z,0.3
2022-12-27T03:05:37.015Z,0.2
2022-12-27T03:10:37.071Z,0.2
2022-12-27T03:15:36.973Z,0.2
2022-12-27T03:20:37.060Z,0.2
2022-12-27T03:25:37.037Z,0.1
2022-12-27T03:30:37.148Z,0.2
2022-12-27T03:35:37.509Z,0.2
2022-12-27T03:40:36.986Z,0.2
2022-12-27T03:45:37.232Z,0.2
2022-12-27T03:50:37.508Z,0.2
2022-12-27T03:55:37.146Z,0.3
2022-12-27T04:00:37.112Z,0.2
2022-12-27T04:05:37.044Z,0.2
2022-12-27T04:10:36.998Z,0.2
2022-12-27T04:15:38.002Z,0.2
2022-12-27T04:20:37.012Z,0.2
2022-12-27T04:25:37.060Z,0.2
2022-12-27T04:30:36.981Z,0.2
2022-12-27T04:35:38.022Z,0.1
2022-12-27T04:40:37.108Z,0.2
2022-12-27T04:45:36.967Z,0.2
2022-12-27T04:50:37.025Z,0.2
2022-12-27T04:55:37.057Z,0.2
2022-12-27T05:05:37.209Z,0.2
2022-12-27T05:10:38.187Z,0.2
2022-12-27T05:15:36.954Z,0.2
2022-12-27T05:20:38.215Z,0.2
2022-12-27T05:25:37.140Z,0.2
2022-12-27T05:30:36.970Z,0.2
2022-12-27T05:35:38.068Z,0.2
2022-12-27T05:40:37.164Z,0.2
2022-12-27T05:45:37.029Z,0.2
2022-12-27T05:50:37.124Z,0.2
2022-12-27T05:55:36.999Z,0.2
2022-12-27T06:00:36.985Z,0.2
2022-12-27T06:05:37.247Z,0.2
2022-12-27T06:10:37.021Z,0.2
2022-12-27T06:15:37.029Z,0.2
2022-12-27T06:20:37.016Z,0.2
2022-12-27T06:25:38.535Z,0.1
2022-12-27T06:30:37.131Z,0.2
2022-12-27T06:35:37.028Z,0.2
2022-12-27T06:40:37.112Z,0.2
2022-12-27T06:45:37.088Z,0.3
2022-12-27T06:50:37.005Z,0.2
2022-12-27T06:55:37.019Z,0.2
2022-12-27T07:00:37.060Z,0.2
2022-12-27T07:05:38.168Z,0.3
2022-12-27T07:10:37.022Z,0.4
2022-12-27T07:15:37.141Z,0.4
2022-12-27T07:20:38.867Z,0.4
2022-12-27T07:25:37.051Z,0.5
2022-12-27T07:30:37.540Z,0.6
2022-12-27T07:35:44.894Z,0.7
2022-12-27T07:40:37.074Z,0.8
2022-12-27T07:45:37.528Z,0.9
2022-12-27T07:50:37.138Z,0.1
2022-12-27T07:55:37.028Z,0.1
2022-12-27T08:00:37.067Z,0.11
2022-12-27T08:05:37.448Z,0.13
2022-12-27T08:10:37.242Z,0.13
2022-12-27T08:15:37.042Z,0.14
2022-12-27T08:20:37.067Z,0.16
2022-12-27T08:25:37.359Z,0.15
2022-12-27T08:30:37.128Z,0.17
2022-12-27T08:35:52.542Z,0.15
2022-12-27T08:40:37.095Z,0.2
2022-12-27T08:45:37.078Z,0.19
2022-12-27T08:50:37.143Z,0.19
2022-12-27T08:55:37.124Z,0.23
2022-12-27T09:00:37.115Z,0.22
2022-12-27T09:05:42.004Z,0.21
2022-12-27T09:10:37.181Z,0.24
2022-12-27T09:15:37.071Z,0.23
2022-12-27T09:20:37.115Z,0.22
2022-12-27T09:25:37.576Z,0.21
2022-12-27T09:30:37.135Z,0.21
2022-12-27T09:35:40.211Z,0.2
2022-12-27T09:40:37.137Z,0.2
2022-12-27T09:45:37.052Z,0.2
2022-12-27T09:50:37.445Z,0.2
2022-12-27T09:55:37.197Z,0.2
2022-12-27T10:00:44.247Z,0.19
2022-12-27T10:05:37.283Z,0.2
2022-12-27T10:10:37.419Z,0.19
2022-12-27T10:15:37.173Z,0.19
2022-12-27T10:20:37.273Z,0.19
2022-12-27T10:25:37.147Z,0.19
2022-12-27T10:30:37.115Z,0.18
2022-12-27T10:35:37.442Z,0.18
2022-12-27T10:40:37.131Z,0.19
2022-12-27T10:45:37.072Z,0.19
2022-12-27T10:50:37.192Z,0.18
2022-12-27T10:55:37.123Z,0.19
2022-12-27T11:00:37.117Z,0.19
2022-12-27T11:05:37.484Z,0.19
2022-12-27T11:10:37.148Z,0.22
2022-12-27T11:15:37.051Z,0.17
2022-12-27T11:20:37.191Z,0.18
2022-12-27T11:25:37.087Z,0.17
2022-12-27T11:30:37.110Z,0.17
2022-12-27T11:35:37.387Z,0.17
2022-12-27T11:40:37.097Z,0.17
2022-12-27T11:45:37.074Z,0.16
2022-12-27T11:50:37.102Z,0.17
2022-12-27T11:55:38.387Z,0.18
2022-12-27T12:00:37.108Z,0.17
2022-12-27T12:05:37.447Z,0.26
2022-12-27T12:10:37.158Z,0.19
2022-12-27T12:15:37.336Z,0.18
2022-12-27T12:20:37.299Z,0.17
2022-12-27T12:25:37.139Z,0.18
2022-12-27T12:30:37.111Z,0.2
2022-12-27T12:35:37.272Z,0.19
2022-12-27T12:40:37.166Z,0.19
2022-12-27T12:45:37.119Z,0.18
2022-12-27T12:50:37.085Z,0.18
2022-12-27T12:55:40.204Z,0.17
2022-12-27T13:00:37.104Z,0.17
2022-12-27T13:05:37.496Z,0.17
2022-12-27T13:10:37.283Z,0.15
2022-12-27T13:15:37.426Z,0.13
2022-12-27T13:20:37.896Z,0.13
2022-12-27T13:25:37.176Z,0.12
2022-12-27T13:30:37.124Z,0.12
2022-12-27T13:35:37.347Z,0.11
2022-12-27T13:40:37.622Z,0.1
2022-12-27T13:45:37.225Z,0.11
2022-12-27T13:50:37.162Z,0.1
2022-12-27T13:55:37.197Z,0.9
2022-12-27T14:00:37.353Z,0.9
2022-12-27T14:05:37.319Z,0.1
2022-12-27T14:10:37.214Z,0.9
2022-12-27T14:15:37.285Z,0.9
2022-12-27T14:20:37.212Z,0.8
2022-12-27T14:25:37.409Z,0.7
2022-12-27T14:30:37.236Z,0.6
2022-12-27T14:35:37.228Z,0.5
2022-12-27T14:40:37.167Z,0.5
2022-12-27T14:45:37.183Z,0.6
2022-12-27T14:50:37.740Z,0.5
2022-12-27T14:55:37.175Z,0.4
2022-12-27T15:00:37.203Z,0.4
2022-12-27T15:05:38.348Z,0.3
2022-12-27T15:10:37.168Z,0.3
2022-12-27T15:15:37.150Z,0.2
2022-12-27T15:20:37.257Z,0.2
2022-12-27T15:25:37.214Z,0.3
2022-12-27T15:30:37.076Z,0.2
2022-12-27T15:35:37.166Z,0.2
2022-12-27T15:40:37.105Z,0.2
2022-12-27T15:45:37.141Z,0.2
2022-12-27T15:50:37.207Z,0.2
2022-12-27T15:55:37.664Z,0.2
2022-12-27T16:00:37.219Z,0.1
2022-12-27T16:05:37.331Z,0.2
2022-12-27T16:10:37.235Z,0.2
2022-12-27T16:15:38.155Z,0.2
2022-12-27T16:20:37.164Z,0.2
2022-12-27T16:25:37.177Z,0.2
2022-12-27T16:30:37.130Z,0.2
2022-12-27T16:35:37.220Z,0.1
2022-12-27T16:40:37.355Z,0.1
2022-12-27T16:45:37.305Z,0.1
2022-12-27T16:50:41.275Z,0.1
2022-12-27T16:55:37.321Z,0.2
2022-12-27T17:00:37.241Z,0.1
2022-12-27T17:05:37.265Z,0.2
2022-12-27T17:10:37.392Z,0.2
2022-12-27T17:15:37.095Z,0.2
2022-12-27T17:20:37.305Z,0.2
2022-12-27T17:25:37.314Z,0.1
2022-12-27T17:30:37.275Z,0.2
2022-12-27T17:35:37.519Z,0.2
2022-12-27T17:40:37.311Z,0.2
2022-12-27T17:45:37.138Z,0.3
2022-12-27T17:50:37.275Z,0.2
2022-12-27T17:55:37.338Z,0.2
2022-12-27T18:00:37.383Z,0.2
2022-12-27T18:05:37.279Z,0.2
2022-12-27T18:10:37.422Z,0.3
2022-12-27T18:15:37.733Z,0.1
2022-12-27T18:20:37.209Z,0.2
2022-12-27T18:25:37.184Z,0.2
2022-12-27T18:30:37.136Z,0.1
2022-12-27T18:35:37.794Z,0.2
2022-12-27T18:40:37.227Z,0.2
2022-12-27T18:45:37.358Z,0.2
2022-12-27T18:50:37.338Z,0.2
2022-12-27T18:55:37.367Z,0.2
2022-12-27T19:00:37.172Z,0.2
2022-12-27T19:05:37.248Z,0.2
2022-12-27T19:10:37.253Z,0.2
2022-12-27T19:15:37.270Z,0.2
2022-12-27T19:20:37.300Z,0.3
2022-12-27T19:25:37.212Z,0.2
2022-12-27T19:30:37.150Z,0.2
2022-12-27T19:35:37.779Z,0.2
2022-12-27T19:40:37.209Z,0.2
2022-12-27T19:45:37.140Z,0.2
2022-12-27T19:50:37.290Z,0.2
2022-12-27T19:55:37.262Z,0.2
2022-12-27T20:00:37.132Z,0.2
2022-12-27T20:06:12.051Z,0.3
2022-12-27T20:10:37.230Z,0.2
2022-12-27T20:15:37.670Z,0.2
2022-12-27T20:20:37.357Z,0.2
2022-12-27T20:25:37.384Z,0.2
2022-12-27T20:30:37.130Z,0.1
2022-12-27T20:35:37.296Z,0.1
2022-12-27T20:40:37.247Z,0.2
2022-12-27T20:45:37.252Z,0.2
2022-12-27T20:50:37.331Z,0.2
2022-12-27T20:55:37.264Z,0.2
2022-12-27T21:00:37.163Z,0.3
2022-12-27T21:05:37.967Z,0.1
2022-12-27T21:10:37.349Z,0.2
2022-12-27T21:15:42.493Z,0.2
2022-12-27T21:20:39.898Z,0.2
2022-12-27T21:25:37.280Z,0.1
2022-12-27T21:30:37.175Z,0.2
2022-12-27T21:35:37.252Z,0.2
2022-12-27T21:40:37.272Z,0.2
2022-12-27T21:45:37.217Z,0.2
2022-12-27T21:50:38.551Z,0.3
2022-12-27T21:55:37.207Z,0.2
2022-12-27T22:00:37.155Z,0.2
2022-12-27T22:05:37.700Z,0.1
2022-12-27T22:10:37.251Z,0.2
2022-12-27T22:15:37.178Z,0.2
2022-12-27T22:20:45.179Z,0.2
2022-12-27T22:25:37.312Z,0.1
2022-12-27T22:30:37.693Z,0.2
2022-12-27T22:35:37.318Z,0.2
2022-12-27T22:40:45.925Z,0.2
2022-12-27T22:45:37.183Z,0.2
2022-12-27T22:50:37.383Z,0.2
2022-12-27T22:55:37.311Z,0.2
2022-12-27T23:00:45.305Z,0.2
2022-12-27T23:05:37.476Z,0.3
2022-12-27T23:10:37.947Z,0.2
2022-12-27T23:15:37.370Z,0.2
2022-12-27T23:21:19.506Z,0.2
2022-12-27T23:25:37.307Z,0.2
2022-12-27T23:30:37.292Z,0.2
2022-12-27T23:35:37.449Z,0.2
2022-12-27T23:40:37.456Z,0.2
2022-12-27T23:45:37.436Z,0.2
2022-12-27T23:50:38.632Z,0.2
2022-12-27T23:55:37.599Z,0.3
